Time;durP1;ratioP1;P1;durP2;ratioP2;P2;SDS_P1;SDS_P2;PMS_P1;PMS_P2;Temp;Humidity;BMP_temperature;BMP_pressure;BME280_temperature;BME280_humidity;BME280_pressure;Samples;Min_cycle;Max_cycle;Signal;HPM_P1;HPM_P2
2023/09/26 00:00:21;;;;;;;0.65;0.65;;;;;;;8.95;100.00;100881.41;4936806;29;20051;-89
2023/09/26 00:02:52;;;;;;;0.70;0.70;;;;;;;8.92;100.00;100878.25;4938988;29;20082;-88
2023/09/26 00:05:22;;;;;;;0.50;0.50;;;;;;;8.83;100.00;100881.03;4954592;29;20418;-89
2023/09/26 00:07:51;;;;;;;0.70;0.70;;;;;;;8.83;100.00;100890.97;4969256;29;20051;-89
2023/09/26 00:10:19;;;;;;;0.60;0.60;;;;;;;8.81;100.00;100888.50;4959411;28;20146;-87
2023/09/26 02:45:34;;;;;;;0.60;0.60;;;;;;;7.41;100.00;100909.56;4923906;29;20522;-87
2023/09/26 02:48:03;;;;;;;0.70;0.70;;;;;;;7.42;100.00;100908.56;4925749;29;20504;-87
2023/09/26 02:50:31;;;;;;;0.70;0.70;;;;;;;7.41;100.00;100906.88;4925446;29;20478;-88
2023/09/26 02:52:58;;;;;;;0.60;0.60;;;;;;;7.42;100.00;100905.88;4926338;29;20057;-87
2023/09/26 02:55:25;;;;;;;0.60;0.60;;;;;;;7.46;100.00;100914.41;4934191;29;20059;-87
2023/09/26 02:57:52;;;;;;;0.60;0.60;;;;;;;7.47;100.00;100918.75;4935536;29;20048;-87
2023/09/26 03:00:19;;;;;;;0.60;0.60;;;;;;;7.48;100.00;100917.75;4931417;29;20055;-87
2023/09/26 03:02:47;;;;;;;0.60;0.60;;;;;;;7.48;100.00;100909.69;4924054;29;20111;-87
2023/09/26 03:05:17;;;;;;;0.70;0.70;;;;;;;7.49;100.00;100916.72;4924413;29;20455;-83
2023/09/26 03:07:49;;;;;;;0.70;0.70;;;;;;;7.48;100.00;100918.59;4925775;29;20079;-89
2023/09/26 03:10:16;;;;;;;0.60;0.60;;;;;;;7.48;100.00;100915.06;4915764;29;20106;-88
2023/09/26 03:12:46;;;;;;;0.60;0.60;;;;;;;7.52;100.00;100921.72;4916943;29;20075;-86
2023/09/26 03:15:14;;;;;;;0.60;0.60;;;;;;;7.52;100.00;100927.97;4918621;29;20264;-86
2023/09/26 03:17:42;;;;;;;0.60;0.60;;;;;;;7.53;100.00;100931.50;4921575;29;20048;-88
2023/09/26 03:20:11;;;;;;;0.68;0.68;;;;;;;7.51;100.00;100928.13;4924598;29;20446;-83
2023/09/26 03:22:38;;;;;;;0.60;0.60;;;;;;;7.50;100.00;100930.00;4908423;29;20067;-86
2023/09/26 03:25:06;;;;;;;0.70;0.70;;;;;;;7.52;100.00;100937.84;4917709;29;20052;-88
2023/09/26 03:27:33;;;;;;;0.60;0.60;;;;;;;7.54;100.00;100933.16;4916529;29;20055;-90
2023/09/26 03:30:01;;;;;;;0.60;0.60;;;;;;;7.54;100.00;100938.53;4916256;29;20052;-86
2023/09/26 03:32:30;;;;;;;0.60;0.60;;;;;;;7.55;100.00;100940.22;4913722;29;20052;-91
2023/09/26 03:35:04;;;;;;;0.60;0.60;;;;;;;7.60;100.00;100938.66;4902771;29;20052;-89
2023/09/26 03:37:31;;;;;;;0.80;0.80;;;;;;;7.61;100.00;100939.50;4887831;29;20515;-89
2023/09/26 03:39:58;;;;;;;0.55;0.55;;;;;;;7.71;100.00;100948.16;4911097;29;20107;-87
2023/09/26 03:42:25;;;;;;;0.60;0.60;;;;;;;7.78;100.00;100950.97;4906387;29;20082;-89
2023/09/26 03:44:53;;;;;;;0.70;0.70;;;;;;;7.82;100.00;100946.91;4910739;29;20519;-88
2023/09/26 03:47:20;;;;;;;0.68;0.68;;;;;;;7.87;100.00;100951.75;4913383;29;20050;-88
2023/09/26 03:49:52;;;;;;;0.60;0.60;;;;;;;7.91;100.00;100943.16;4939664;29;20089;-89
2023/09/26 03:52:19;;;;;;;0.60;0.60;;;;;;;7.97;100.00;100949.66;4924421;29;20051;-92
2023/09/26 03:54:47;;;;;;;0.70;0.70;;;;;;;7.98;100.00;100944.09;4941769;29;20070;-87
2023/09/26 03:57:14;;;;;;;0.70;0.70;;;;;;;8.05;100.00;100946.88;4943122;29;20052;-89
2023/09/26 03:59:41;;;;;;;0.60;0.60;;;;;;;8.12;100.00;100952.38;4927310;29;20043;-88
2023/09/26 04:02:09;;;;;;;0.60;0.60;;;;;;;8.19;100.00;100958.72;4941314;29;20063;-90
2023/09/26 04:04:36;;;;;;;0.68;0.68;;;;;;;8.28;100.00;100956.78;4937658;29;20084;-89
2023/09/26 04:07:03;;;;;;;0.60;0.60;;;;;;;8.36;100.00;100951.34;4924032;29;20092;-91
2023/09/26 04:09:33;;;;;;;0.60;0.60;;;;;;;8.41;100.00;100965.13;4926820;29;20056;-93
2023/09/26 04:12:03;;;;;;;0.70;0.70;;;;;;;8.44;100.00;100954.81;4926612;29;20119;-90
2023/09/26 04:14:30;;;;;;;0.60;0.60;;;;;;;8.49;100.00;100956.13;4926825;29;20099;-89
2023/09/26 04:16:58;;;;;;;0.60;0.60;;;;;;;8.53;100.00;100957.44;4920968;29;20056;-89
2023/09/26 04:19:25;;;;;;;0.60;0.60;;;;;;;8.59;100.00;100957.53;4924797;29;20578;-90
2023/09/26 04:21:53;;;;;;;0.60;0.60;;;;;;;8.65;100.00;100962.16;4931514;29;20052;-91
2023/09/26 04:24:21;;;;;;;0.70;0.70;;;;;;;8.67;100.00;100954.75;4921622;29;20063;-89
2023/09/26 04:26:48;;;;;;;0.70;0.70;;;;;;;8.72;100.00;100948.81;4909870;29;20553;-89
2023/09/26 04:29:15;;;;;;;0.60;0.60;;;;;;;8.84;100.00;100959.97;4924271;29;20083;-88
2023/09/26 04:31:43;;;;;;;0.60;0.60;;;;;;;8.90;100.00;100967.28;4910798;29;20083;-89
2023/09/26 04:34:10;;;;;;;0.60;0.60;;;;;;;8.91;100.00;100947.41;4928486;29;20147;-89
2023/09/26 04:36:37;;;;;;;0.60;0.60;;;;;;;9.05;100.00;100973.50;4910403;29;20052;-90
2023/09/26 04:39:05;;;;;;;0.70;0.70;;;;;;;9.13;100.00;100977.97;4920714;29;20103;-90
2023/09/26 04:41:32;;;;;;;0.60;0.60;;;;;;;9.17;100.00;100973.06;4929443;29;20063;-91
2023/09/26 04:44:00;;;;;;;0.60;0.60;;;;;;;9.22;100.00;100976.84;4930810;29;20111;-92
2023/09/26 04:46:31;;;;;;;0.70;0.70;;;;;;;9.39;100.00;100985.56;4868737;29;20574;-88
2023/09/26 04:48:59;;;;;;;0.60;0.60;;;;;;;9.37;100.00;100971.44;4921866;29;20123;-89
2023/09/26 04:51:26;;;;;;;0.70;0.70;;;;;;;9.48;100.00;100967.44;4924720;29;20392;-89
2023/09/26 04:53:53;;;;;;;0.68;0.68;;;;;;;9.56;99.90;100972.69;4926771;29;20367;-89
2023/09/26 04:56:20;;;;;;;0.60;0.60;;;;;;;9.64;99.57;100972.56;4905399;29;20423;-91
2023/09/26 04:58:47;;;;;;;0.60;0.60;;;;;;;9.65;99.12;100965.34;4567211;29;10000296;-86
2023/09/26 05:01:15;;;;;;;0.68;0.68;;;;;;;9.75;98.77;100979.34;4877603;29;20076;-91
2023/09/26 05:03:44;;;;;;;0.60;0.60;;;;;;;9.86;98.51;100986.94;4892868;29;20526;-87
2023/09/26 05:06:17;;;;;;;0.60;0.60;;;;;;;9.90;98.04;100987.38;4560562;29;10001164;-90
2023/09/26 05:08:51;;;;;;;0.60;0.60;;;;;;;9.98;97.74;100974.59;4894204;29;20099;-87
2023/09/26 05:11:18;;;;;;;0.60;0.60;;;;;;;10.15;97.44;100994.06;4901891;29;20116;-87
2023/09/26 05:13:45;;;;;;;0.60;0.60;;;;;;;10.25;97.00;100988.31;4881753;29;20062;-89
2023/09/26 05:16:14;;;;;;;0.70;0.70;;;;;;;10.37;96.66;100992.22;4881573;29;20143;-88
2023/09/26 05:18:41;;;;;;;0.68;0.68;;;;;;;10.41;96.42;100985.41;4896662;29;20048;-87
2023/09/26 05:21:09;;;;;;;0.60;0.60;;;;;;;10.58;96.16;100987.81;4897877;29;20077;-88
2023/09/26 05:23:37;;;;;;;0.70;0.70;;;;;;;10.78;95.60;100990.66;4882159;29;20052;-88
2023/09/26 05:26:09;;;;;;;0.60;0.60;;;;;;;10.78;95.10;100975.28;4900367;29;20111;-89
2023/09/26 05:28:37;;;;;;;0.60;0.60;;;;;;;10.95;94.61;100983.06;4882281;29;20092;-87
2023/09/26 05:31:05;;;;;;;0.60;0.60;;;;;;;11.04;93.63;100980.03;4896417;29;20066;-87
2023/09/26 05:33:33;;;;;;;0.60;0.60;;;;;;;11.20;92.93;100986.13;4893275;29;20056;-88
2023/09/26 05:36:00;;;;;;;0.60;0.60;;;;;;;11.38;92.10;100996.41;4896351;29;20147;-88
2023/09/26 05:38:27;;;;;;;0.60;0.60;;;;;;;11.49;91.38;100999.38;4896341;29;20064;-86
2023/09/26 05:40:54;;;;;;;0.60;0.60;;;;;;;11.63;90.51;100988.59;4882669;29;20176;-87
2023/09/26 05:43:22;;;;;;;0.60;0.60;;;;;;;11.74;89.19;100984.47;4899693;29;20063;-88
2023/09/26 05:45:51;;;;;;;0.60;0.60;;;;;;;11.88;88.37;100991.63;4904914;29;20560;-89
2023/09/26 05:48:19;;;;;;;0.60;0.60;;;;;;;11.98;87.87;100992.06;4919809;29;20541;-88
2023/09/26 05:50:46;;;;;;;0.60;0.60;;;;;;;12.05;86.55;100978.50;4899963;29;20364;-88
2023/09/26 05:53:14;;;;;;;0.60;0.60;;;;;;;12.25;85.12;100997.47;4902633;29;20048;-87
2023/09/26 05:55:42;;;;;;;0.60;0.60;;;;;;;12.26;84.69;100988.34;4909072;29;20139;-88
2023/09/26 05:58:09;;;;;;;0.60;0.60;;;;;;;12.30;83.48;100979.56;4930515;29;20075;-85
2023/09/26 06:00:37;;;;;;;0.60;0.60;;;;;;;12.51;82.07;101002.94;4880605;29;20048;-86
2023/09/26 06:03:04;;;;;;;0.60;0.60;;;;;;;12.57;81.15;100991.25;4916286;29;20076;-86
2023/09/26 06:05:34;;;;;;;0.60;0.60;;;;;;;12.74;80.36;101007.09;4913272;29;20147;-88
2023/09/26 06:08:02;;;;;;;0.50;0.50;;;;;;;12.76;80.00;101000.41;4882877;29;20052;-86
2023/09/26 06:10:30;;;;;;;0.60;0.60;;;;;;;12.74;79.22;100997.06;4890833;29;20060;-88
2023/09/26 06:12:57;;;;;;;0.60;0.60;;;;;;;12.74;78.39;101007.09;4911036;29;20049;-88
2023/09/26 06:15:24;;;;;;;0.60;0.60;;;;;;;12.67;77.98;100990.00;4909155;29;20051;-88
2023/09/26 06:17:57;;;;;;;0.60;0.60;;;;;;;12.86;77.72;101002.66;4909353;29;20048;-86
2023/09/26 06:20:27;;;;;;;0.60;0.60;;;;;;;12.98;76.35;101005.56;4902146;29;20052;-87
2023/09/26 06:22:58;;;;;;;0.60;0.60;;;;;;;12.99;75.91;101007.25;4905585;29;20079;-86
2023/09/26 06:25:25;;;;;;;0.60;0.60;;;;;;;12.98;75.36;100998.28;4897424;29;20427;-89
2023/09/26 06:27:59;;;;;;;0.60;0.60;;;;;;;13.05;74.81;100992.03;4898635;29;20547;-86
2023/09/26 06:30:27;;;;;;;0.52;0.52;;;;;;;13.23;74.43;101011.97;4913821;29;20580;-88
2023/09/26 06:32:55;;;;;;;0.60;0.60;;;;;;;13.26;73.87;101001.75;4913468;29;20104;-90
2023/09/26 06:35:22;;;;;;;0.60;0.60;;;;;;;13.31;73.37;101002.81;4922998;29;20079;-88
2023/09/26 06:37:50;;;;;;;0.50;0.50;;;;;;;13.33;72.66;100998.00;4917350;29;20058;-88
2023/09/26 06:40:17;;;;;;;0.47;0.47;;;;;;;13.37;72.35;100993.81;4920884;29;20048;-90
2023/09/26 06:42:46;;;;;;;0.50;0.50;;;;;;;13.40;71.47;100992.56;4921585;29;20115;-88
2023/09/26 06:45:14;;;;;;;0.60;0.60;;;;;;;13.46;71.88;101005.25;4902149;29;20070;-89
2023/09/26 06:47:41;;;;;;;0.55;0.55;;;;;;;13.51;71.73;100985.63;4918989;29;20057;-89
2023/09/26 06:50:10;;;;;;;0.50;0.50;;;;;;;13.78;70.43;101005.34;4926254;29;20482;-86
2023/09/26 06:52:38;;;;;;;0.50;0.50;;;;;;;13.97;69.91;101006.25;4901158;29;20327;-88
2023/09/26 06:55:10;;;;;;;0.60;0.60;;;;;;;14.17;68.29;100987.13;4915078;29;20079;-89
2023/09/26 06:57:39;;;;;;;0.60;0.60;;;;;;;14.32;67.50;101002.03;4912873;29;20103;-88
2023/09/26 07:00:16;;;;;;;0.50;0.50;;;;;;;14.49;66.48;100998.78;4916557;29;20056;-88
2023/09/26 07:02:43;;;;;;;0.50;0.50;;;;;;;14.61;66.28;100988.91;4914714;29;20048;-86
2023/09/26 07:05:16;;;;;;;0.60;0.60;;;;;;;14.73;65.50;100995.25;4907635;29;20053;-88
2023/09/26 07:07:44;;;;;;;0.60;0.60;;;;;;;14.93;65.21;101003.19;4904253;29;20060;-88
2023/09/26 07:10:11;;;;;;;0.55;0.55;;;;;;;14.97;64.99;100994.63;4897339;29;20069;-86
2023/09/26 07:12:38;;;;;;;0.50;0.50;;;;;;;14.99;63.82;100981.59;4897783;29;20055;-88
2023/09/26 07:15:09;;;;;;;0.60;0.60;;;;;;;14.98;63.58;100986.22;4912635;29;20575;-87
2023/09/26 07:17:37;;;;;;;0.60;0.60;;;;;;;14.91;63.84;100997.19;4912286;29;20241;-90
2023/09/26 07:20:15;;;;;;;0.50;0.50;;;;;;;15.03;63.63;100994.53;4873001;29;20063;-86
2023/09/26 07:22:44;;;;;;;0.60;0.60;;;;;;;15.23;62.76;100993.50;4913978;29;20062;-86
2023/09/26 07:25:12;;;;;;;0.60;0.60;;;;;;;15.41;62.47;100993.47;4917620;29;20054;-87
2023/09/26 07:27:39;;;;;;;0.60;0.60;;;;;;;15.57;61.95;100981.97;4917540;29;20424;-87
2023/09/26 07:30:09;;;;;;;0.60;0.60;;;;;;;15.74;61.60;100990.34;4919006;29;20047;-87
2023/09/26 07:32:36;;;;;;;0.60;0.60;;;;;;;15.84;60.89;100983.53;4918993;29;20056;-87
2023/09/26 07:35:04;;;;;;;0.60;0.60;;;;;;;16.05;60.37;100980.28;4921687;29;20607;-87
2023/09/26 07:37:32;;;;;;;0.60;0.60;;;;;;;16.13;59.87;100982.69;4923979;29;20427;-87
2023/09/26 07:40:02;;;;;;;0.60;0.60;;;;;;;16.21;59.96;100986.97;4887041;29;20062;-87
2023/09/26 07:42:31;;;;;;;0.50;0.50;;;;;;;16.43;59.02;100988.06;4917623;29;20554;-87
2023/09/26 07:44:58;;;;;;;0.52;0.52;;;;;;;16.58;58.58;100984.03;4918270;29;20407;-87
2023/09/26 07:47:25;;;;;;;0.60;0.60;;;;;;;16.49;58.21;100972.66;4917448;29;20122;-87
2023/09/26 07:49:52;;;;;;;0.60;0.60;;;;;;;16.53;57.44;100981.19;4917658;29;20071;-87
2023/09/26 07:52:22;;;;;;;0.60;0.60;;;;;;;16.44;57.41;100978.81;4917469;29;20052;-87
2023/09/26 07:54:50;;;;;;;0.60;0.60;;;;;;;16.54;57.13;100972.78;4918903;29;20107;-88
2023/09/26 07:57:17;;;;;;;0.70;0.70;;;;;;;16.88;56.34;100971.13;4917088;29;20058;-87
2023/09/26 07:59:44;;;;;;;0.60;0.60;;;;;;;17.11;55.98;100973.00;4918543;29;20072;-86
2023/09/26 08:02:11;;;;;;;0.60;0.60;;;;;;;17.65;54.25;100974.66;4917355;29;20677;-87
2023/09/26 08:04:38;;;;;;;0.60;0.60;;;;;;;18.19;52.80;100978.69;4901297;29;20056;-87
2023/09/26 08:07:06;;;;;;;0.50;0.50;;;;;;;18.24;51.50;100982.59;4918744;29;20060;-86
2023/09/26 08:09:34;;;;;;;0.63;0.63;;;;;;;18.41;50.95;100975.22;4918508;29;20572;-87
2023/09/26 08:12:01;;;;;;;0.60;0.60;;;;;;;18.76;50.33;100983.19;4901685;29;20611;-88
2023/09/26 08:14:29;;;;;;;0.60;0.60;;;;;;;19.19;49.51;100986.22;4916901;29;20047;-86
2023/09/26 08:16:56;;;;;;;0.60;0.60;;;;;;;19.48;48.70;100970.44;4918865;29;20051;-87
2023/09/26 08:19:23;;;;;;;0.60;0.60;;;;;;;19.86;48.36;100968.69;4918169;29;20064;-87
2023/09/26 08:21:50;;;;;;;0.60;0.60;;;;;;;19.87;48.07;100971.16;4917467;29;20059;-88
2023/09/26 08:24:17;;;;;;;0.60;0.60;;;;;;;19.90;47.10;100959.72;4901850;29;20048;-88
2023/09/26 08:26:45;;;;;;;0.60;0.60;;;;;;;19.98;47.29;100963.03;4918084;29;20056;-87
2023/09/26 08:29:12;;;;;;;0.60;0.60;;;;;;;20.12;47.32;100958.78;4917678;29;20048;-87
2023/09/26 08:31:39;;;;;;;0.50;0.50;;;;;;;20.50;45.67;100963.22;4917676;29;20075;-87
2023/09/26 08:34:06;;;;;;;0.60;0.60;;;;;;;20.63;45.37;100961.97;4918433;29;20142;-88
2023/09/26 08:36:33;;;;;;;0.60;0.60;;;;;;;20.94;44.41;100956.66;4917752;29;20056;-87
2023/09/26 08:39:01;;;;;;;0.65;0.65;;;;;;;21.20;43.50;100952.97;4917699;29;20080;-86
2023/09/26 08:41:29;;;;;;;0.60;0.60;;;;;;;21.29;42.92;100952.44;4919254;29;20054;-87
2023/09/26 08:43:57;;;;;;;0.50;0.50;;;;;;;20.76;43.26;100950.56;4917820;29;20048;-87
2023/09/26 08:46:24;;;;;;;0.52;0.52;;;;;;;20.19;43.95;100948.44;4918273;29;20062;-88
2023/09/26 08:48:54;;;;;;;0.60;0.60;;;;;;;19.77;44.54;100954.63;4916852;29;20063;-88
2023/09/26 08:51:23;;;;;;;0.45;0.45;;;;;;;19.31;46.11;100945.88;4917861;29;20048;-86
2023/09/26 08:53:50;;;;;;;0.50;0.50;;;;;;;19.34;46.16;100945.34;4901501;29;20108;-87
2023/09/26 08:56:18;;;;;;;0.60;0.60;;;;;;;19.66;45.43;100950.09;4918627;29;20056;-87
2023/09/26 08:58:48;;;;;;;0.55;0.55;;;;;;;19.68;45.05;100942.50;4917573;29;20147;-88
2023/09/26 09:01:18;;;;;;;0.60;0.60;;;;;;;19.49;45.30;100942.78;4900666;29;20503;-87
2023/09/26 09:03:46;;;;;;;0.60;0.60;;;;;;;20.27;43.83;100941.66;4917886;29;20052;-87
2023/09/26 09:06:14;;;;;;;0.60;0.60;;;;;;;20.90;42.43;100936.34;4886287;29;20562;-86
2023/09/26 09:08:42;;;;;;;0.60;0.60;;;;;;;21.02;42.14;100936.97;4886458;29;20040;-88
2023/09/26 09:11:09;;;;;;;0.50;0.50;;;;;;;21.56;41.46;100935.81;4917347;29;20056;-87
2023/09/26 09:13:43;;;;;;;0.52;0.52;;;;;;;21.85;41.43;100934.22;4917299;29;20048;-86
2023/09/26 09:16:11;;;;;;;0.50;0.50;;;;;;;22.35;40.48;100937.28;4902017;29;20048;-88
2023/09/26 09:18:44;;;;;;;0.60;0.60;;;;;;;23.13;38.53;100934.09;4917590;29;20060;-87
2023/09/26 09:21:30;;;;;;;0.60;0.60;;;;;;;23.11;37.98;100927.22;4901150;29;20060;-86
2023/09/26 09:24:01;;;;;;;0.60;0.60;;;;;;;23.17;37.77;100920.59;4918131;29;20538;-87
2023/09/26 09:26:31;;;;;;;0.60;0.60;;;;;;;23.40;37.24;100921.88;4916401;29;20051;-87
2023/09/26 09:29:18;;;;;;;0.60;0.60;;;;;;;23.88;36.55;100929.59;4917412;29;20059;-88
2023/09/26 09:31:46;;;;;;;0.60;0.60;;;;;;;24.21;35.52;100928.78;4918242;29;20052;-86
2023/09/26 09:34:16;;;;;;;0.60;0.60;;;;;;;23.93;35.34;100910.25;4917376;29;20044;-88
2023/09/26 09:36:44;;;;;;;0.60;0.60;;;;;;;23.74;35.67;100918.38;4917435;29;20071;-87
2023/09/26 09:39:12;;;;;;;0.60;0.60;;;;;;;23.68;35.91;100930.53;4915689;29;20423;-87
2023/09/26 09:41:40;;;;;;;0.60;0.60;;;;;;;23.66;35.65;100921.72;4916884;29;20048;-86
2023/09/26 09:44:07;;;;;;;0.60;0.60;;;;;;;23.76;35.53;100922.50;4913222;29;20056;-87
2023/09/26 09:46:38;;;;;;;0.60;0.60;;;;;;;23.32;36.12;100912.28;4898820;29;20071;-89
2023/09/26 09:49:11;;;;;;;0.60;0.60;;;;;;;23.84;36.02;100911.97;4900318;29;20052;-87
2023/09/26 09:51:45;;;;;;;0.60;0.60;;;;;;;24.75;34.85;100920.56;4882327;29;20048;-88
2023/09/26 09:54:14;;;;;;;0.60;0.60;;;;;;;25.19;32.96;100923.06;4878482;29;20686;-88
2023/09/26 09:56:45;;;;;;;0.60;0.60;;;;;;;24.69;33.20;100924.47;4877968;29;20097;-86
2023/09/26 09:59:15;;;;;;;0.60;0.60;;;;;;;24.06;34.40;100920.63;4863223;29;20083;-89
2023/09/26 10:01:49;;;;;;;0.60;0.60;;;;;;;23.76;34.78;100916.97;4890665;29;20070;-87
2023/09/26 10:04:18;;;;;;;0.60;0.60;;;;;;;23.77;34.93;100918.63;4880944;29;20197;-88
2023/09/26 10:06:47;;;;;;;0.60;0.60;;;;;;;24.47;33.54;100909.25;4866157;29;20108;-88
2023/09/26 10:09:16;;;;;;;0.60;0.60;;;;;;;25.21;32.64;100908.97;4884687;29;20061;-86
2023/09/26 10:11:45;;;;;;;0.60;0.60;;;;;;;25.72;31.99;100908.25;4864801;29;20057;-89
2023/09/26 10:14:12;;;;;;;0.60;0.60;;;;;;;25.91;31.71;100909.09;4849619;29;20064;-85
2023/09/26 10:16:40;;;;;;;0.60;0.60;;;;;;;25.61;31.48;100912.28;4863283;29;20162;-87
2023/09/26 10:19:08;;;;;;;0.50;0.50;;;;;;;25.54;31.50;100901.59;4879604;29;20139;-88
2023/09/26 10:21:35;;;;;;;0.50;0.50;;;;;;;26.18;29.68;100890.91;4880251;29;20537;-88
2023/09/26 10:24:21;;;;;;;0.50;0.50;;;;;;;26.08;30.30;100896.63;4868496;29;20049;-87
2023/09/26 10:26:50;;;;;;;0.50;0.50;;;;;;;26.28;30.73;100882.47;4900724;29;20116;-86
2023/09/26 10:29:22;;;;;;;0.52;0.52;;;;;;;26.71;30.54;100876.69;4902695;29;20534;-86
2023/09/26 10:31:56;;;;;;;0.50;0.50;;;;;;;26.70;29.92;100869.50;4906555;29;20053;-87
2023/09/26 10:34:27;;;;;;;0.50;0.50;;;;;;;26.09;30.92;100881.69;4906174;29;20074;-87
2023/09/26 10:37:20;;;;;;;0.50;0.50;;;;;;;26.78;29.44;100890.09;4906333;29;20044;-87
2023/09/26 10:39:48;;;;;;;0.50;0.50;;;;;;;27.23;28.37;100880.03;4904993;29;20052;-88
2023/09/26 10:42:22;;;;;;;0.50;0.50;;;;;;;27.57;28.30;100884.25;4915971;29;20056;-87
2023/09/26 10:44:52;;;;;;;0.50;0.50;;;;;;;27.54;28.31;100878.53;4898017;29;20061;-88
2023/09/26 10:47:23;;;;;;;0.50;0.50;;;;;;;27.89;27.53;100871.31;4897308;29;20418;-87
2023/09/26 10:49:50;;;;;;;0.50;0.50;;;;;;;28.06;27.61;100865.88;4897163;29;20057;-87
2023/09/26 10:52:17;;;;;;;0.40;0.40;;;;;;;27.61;27.10;100865.88;4903929;29;20055;-88
2023/09/26 10:54:45;;;;;;;0.50;0.50;;;;;;;26.75;28.25;100877.69;4906009;29;20048;-88
2023/09/26 10:57:17;;;;;;;0.50;0.50;;;;;;;26.79;28.30;100862.13;4897994;29;20140;-88
2023/09/26 10:59:45;;;;;;;0.50;0.50;;;;;;;27.35;28.30;100860.09;4912562;29;20067;-89
2023/09/26 11:02:12;;;;;;;0.50;0.50;;;;;;;28.00;27.86;100860.78;4898790;29;20094;-88
2023/09/26 11:04:40;;;;;;;0.50;0.50;;;;;;;28.45;27.12;100855.19;4898590;29;20143;-88
2023/09/26 11:07:09;;;;;;;0.50;0.50;;;;;;;28.85;26.43;100850.41;4866076;29;20080;-88
2023/09/26 11:09:41;;;;;;;0.47;0.47;;;;;;;28.99;26.33;100852.22;4865208;29;20152;-88
2023/09/26 11:12:11;;;;;;;0.40;0.40;;;;;;;28.52;26.24;100839.69;4844141;29;20068;-88
2023/09/26 11:14:40;;;;;;;0.40;0.40;;;;;;;28.22;26.59;100840.50;4917650;29;20056;-90
2023/09/26 11:17:10;;;;;;;0.50;0.50;;;;;;;27.94;27.22;100848.19;4909350;29;20048;-88
2023/09/26 11:19:37;;;;;;;0.40;0.40;;;;;;;28.52;26.49;100853.56;4869401;29;20112;-87
2023/09/26 11:22:05;;;;;;;0.40;0.40;;;;;;;29.00;26.20;100842.78;4914907;29;20504;-85
2023/09/26 11:24:32;;;;;;;0.40;0.40;;;;;;;29.31;25.17;100842.66;4915318;29;20059;-88
2023/09/26 11:27:08;;;;;;;0.40;0.40;;;;;;;29.02;25.55;100834.91;4913140;29;20045;-85
2023/09/26 11:29:35;;;;;;;0.40;0.40;;;;;;;28.53;26.67;100830.22;4915289;29;20048;-85
2023/09/26 11:32:03;;;;;;;0.40;0.40;;;;;;;28.38;26.46;100833.38;4914603;29;20048;-90
2023/09/26 11:34:34;;;;;;;0.40;0.40;;;;;;;28.50;26.22;100835.59;4919370;29;20045;-86
2023/09/26 11:37:06;;;;;;;0.40;0.40;;;;;;;28.31;25.82;100833.06;4922016;29;20083;-85
2023/09/26 11:39:33;;;;;;;0.40;0.40;;;;;;;28.46;25.80;100827.09;4890198;29;20535;-88
2023/09/26 11:42:07;;;;;;;0.40;0.40;;;;;;;28.70;26.03;100828.63;4894276;29;20048;-87
2023/09/26 11:44:36;;;;;;;0.40;0.40;;;;;;;29.00;25.61;100837.22;4910574;29;20486;-87
2023/09/26 11:47:08;;;;;;;0.40;0.40;;;;;;;29.14;25.00;100821.22;4920741;29;20072;-88
2023/09/26 11:49:35;;;;;;;0.40;0.40;;;;;;;28.99;25.06;100819.69;4896421;29;20052;-87
2023/09/26 11:52:02;;;;;;;0.40;0.40;;;;;;;28.76;25.80;100818.19;4920832;29;20055;-86
2023/09/26 11:54:29;;;;;;;0.40;0.40;;;;;;;28.91;25.37;100812.97;4927156;29;20063;-86
2023/09/26 11:56:57;;;;;;;0.40;0.40;;;;;;;28.56;25.35;100814.84;4920410;29;20111;-87
2023/09/26 11:59:24;;;;;;;0.40;0.40;;;;;;;27.84;26.36;100813.19;4911172;29;20060;-87
2023/09/26 12:01:54;;;;;;;0.30;0.30;;;;;;;27.12;26.94;100814.88;4908151;29;20474;-87
2023/09/26 12:04:21;;;;;;;0.30;0.30;;;;;;;25.63;28.90;100816.06;4901202;29;20071;-87
2023/09/26 12:06:48;;;;;;;0.50;0.50;;;;;;;25.41;29.05;100811.97;4903186;29;20056;-87
2023/09/26 12:09:20;;;;;;;0.50;0.50;;;;;;;26.53;28.26;100813.91;4926467;29;20120;-89
2023/09/26 12:11:49;;;;;;;0.40;0.40;;;;;;;26.90;27.40;100814.81;4910805;29;20051;-86
2023/09/26 12:14:17;;;;;;;0.50;0.50;;;;;;;27.28;26.80;100800.69;4921459;29;20083;-87
2023/09/26 12:16:51;;;;;;;0.50;0.50;;;;;;;28.31;25.89;100802.50;4917375;29;20048;-85
2023/09/26 12:19:21;;;;;;;0.40;0.40;;;;;;;29.10;25.16;100803.59;4910736;29;20049;-86
2023/09/26 12:21:49;;;;;;;0.40;0.40;;;;;;;29.13;25.09;100808.47;4898357;29;20053;-86
2023/09/26 12:24:16;;;;;;;0.40;0.40;;;;;;;29.52;24.47;100798.31;4898927;29;20052;-85
2023/09/26 12:26:46;;;;;;;0.40;0.40;;;;;;;29.06;24.75;100805.38;4899865;29;20060;-86
2023/09/26 12:29:33;;;;;;;0.40;0.40;;;;;;;27.73;26.15;100804.28;4900047;29;20048;-87
2023/09/26 12:32:02;;;;;;;0.40;0.40;;;;;;;27.94;26.33;100787.97;4857428;29;20147;-87
2023/09/26 12:34:29;;;;;;;0.40;0.40;;;;;;;28.16;25.63;100791.84;4899889;29;20411;-86
2023/09/26 12:36:56;;;;;;;0.40;0.40;;;;;;;28.09;26.00;100787.53;4899720;29;20059;-86
2023/09/26 12:39:23;;;;;;;0.50;0.50;;;;;;;28.93;25.28;100799.59;4898892;29;20063;-87
2023/09/26 12:41:50;;;;;;;0.40;0.40;;;;;;;29.51;24.06;100786.38;4899228;29;20555;-86
2023/09/26 12:44:17;;;;;;;0.30;0.30;;;;;;;29.16;24.79;100780.03;4882435;29;20049;-85
2023/09/26 12:46:45;;;;;;;0.40;0.40;;;;;;;28.12;26.15;100796.38;4898168;29;20071;-86
2023/09/26 12:49:12;;;;;;;0.40;0.40;;;;;;;28.14;26.01;100788.56;4899359;29;20080;-87
2023/09/26 12:51:39;;;;;;;0.40;0.40;;;;;;;28.61;25.68;100786.13;4897406;29;20048;-86
2023/09/26 12:54:06;;;;;;;0.40;0.40;;;;;;;29.14;25.27;100783.16;4897851;29;20116;-86
2023/09/26 12:56:36;;;;;;;0.40;0.40;;;;;;;29.50;25.67;100781.97;4899108;29;20100;-86
2023/09/26 12:59:04;;;;;;;0.40;0.40;;;;;;;29.85;24.63;100776.34;4883433;29;20082;-86
2023/09/26 13:01:35;;;;;;;0.40;0.40;;;;;;;29.90;24.80;100778.16;4897264;29;20051;-85
2023/09/26 13:04:02;;;;;;;0.40;0.40;;;;;;;29.52;24.41;100751.84;4901285;29;20048;-86
2023/09/26 13:06:30;;;;;;;0.40;0.40;;;;;;;29.17;25.61;100773.34;4907231;29;20060;-87
2023/09/26 13:08:57;;;;;;;0.40;0.40;;;;;;;29.33;25.14;100763.34;4913121;29;20082;-86
2023/09/26 13:11:25;;;;;;;0.40;0.40;;;;;;;29.59;24.54;100770.84;4914798;29;20052;-86
2023/09/26 13:13:52;;;;;;;0.40;0.40;;;;;;;29.65;24.36;100750.09;4914371;29;20045;-87
2023/09/26 13:16:19;;;;;;;0.38;0.38;;;;;;;29.52;24.43;100762.97;4906772;29;20060;-84
2023/09/26 13:18:46;;;;;;;0.30;0.30;;;;;;;28.45;25.11;100753.25;4913372;29;20048;-85
2023/09/26 13:21:15;;;;;;;0.40;0.40;;;;;;;27.89;26.28;100765.91;4913889;29;20468;-86
2023/09/26 13:23:42;;;;;;;0.40;0.40;;;;;;;28.08;25.67;100757.31;4916179;29;20052;-85
2023/09/26 13:26:10;;;;;;;0.40;0.40;;;;;;;28.57;25.52;100762.94;4915823;29;20059;-85
2023/09/26 13:28:37;;;;;;;0.40;0.40;;;;;;;28.61;25.54;100752.78;4912242;29;20499;-85
2023/09/26 13:31:04;;;;;;;0.40;0.40;;;;;;;28.73;25.45;100753.78;4906420;29;20550;-85
2023/09/26 13:33:31;;;;;;;0.40;0.40;;;;;;;28.52;25.62;100756.38;4915212;29;20354;-84
2023/09/26 13:35:59;;;;;;;0.40;0.40;;;;;;;28.30;25.97;100756.44;4917055;29;20434;-84
2023/09/26 13:38:26;;;;;;;0.30;0.30;;;;;;;27.92;26.12;100750.56;4922497;29;20143;-84
2023/09/26 13:40:53;;;;;;;0.30;0.30;;;;;;;28.24;25.73;100738.31;4916043;29;20090;-85
2023/09/26 13:43:21;;;;;;;0.40;0.40;;;;;;;28.34;25.69;100735.25;4913396;29;20048;-85
2023/09/26 13:45:48;;;;;;;0.30;0.30;;;;;;;28.05;26.05;100731.03;4919906;29;20056;-82
2023/09/26 13:48:15;;;;;;;0.40;0.40;;;;;;;27.97;26.16;100740.16;4898773;29;20104;-85
2023/09/26 13:50:42;;;;;;;0.30;0.30;;;;;;;27.90;26.38;100723.13;4906706;29;20055;-84
2023/09/26 13:53:09;;;;;;;0.40;0.40;;;;;;;27.88;27.22;100733.75;4915687;29;20048;-84
2023/09/26 13:55:38;;;;;;;0.40;0.40;;;;;;;28.05;26.35;100722.72;4899121;29;20150;-84
2023/09/26 13:58:08;;;;;;;0.40;0.40;;;;;;;28.19;26.43;100725.38;4910691;29;20062;-85
2023/09/26 14:00:37;;;;;;;0.40;0.40;;;;;;;27.65;27.00;100716.31;4907598;29;20416;-84
2023/09/26 14:03:04;;;;;;;0.40;0.40;;;;;;;27.10;27.52;100738.72;4916672;29;20058;-87